createdAt,value
2022-12-06T00:01:19.853Z,18.15
2022-12-06T00:04:23.910Z,19.38
2022-12-06T00:07:28.101Z,19.13
2022-12-06T00:10:35.348Z,16.88
2022-12-06T00:13:40.109Z,19.67
2022-12-06T00:16:44.163Z,18.10
2022-12-06T00:19:48.075Z,18.58
2022-12-06T00:22:52.213Z,18.95
2022-12-06T00:25:55.995Z,21.48
2022-12-06T00:29:00.957Z,19.42
2022-12-06T00:32:05.248Z,18.23
2022-12-06T00:35:09.333Z,18.67
2022-12-06T00:38:13.401Z,16.30
2022-12-06T00:41:23.008Z,15.85
2022-12-06T00:44:27.144Z,15.25
2022-12-06T00:47:31.225Z,20.48
2022-12-06T00:50:35.017Z,17.42
2022-12-06T00:53:39.664Z,17.00
2022-12-06T00:56:43.707Z,18.55
2022-12-06T00:59:47.858Z,17.55
2022-12-06T01:02:52.191Z,17.02
2022-12-06T01:05:56.334Z,20.40
2022-12-06T01:09:03.617Z,16.42
2022-12-06T01:12:08.000Z,17.95
2022-12-06T01:15:12.880Z,18.63
2022-12-06T01:18:16.953Z,17.58
2022-12-06T01:21:21.895Z,17.13
2022-12-06T01:24:25.796Z,18.75
2022-12-06T01:27:29.935Z,17.63
2022-12-06T01:30:34.242Z,17.92
2022-12-06T01:33:38.351Z,16.60
2022-12-06T01:36:43.091Z,19.08
2022-12-06T01:39:47.123Z,16.80
2022-12-06T01:42:51.303Z,17.98
2022-12-06T01:45:56.290Z,18.38
2022-12-06T01:49:12.330Z,18.92
2022-12-06T01:52:18.031Z,17.17
2022-12-06T01:55:25.334Z,17.13
2022-12-06T01:58:38.266Z,16.42
2022-12-06T02:01:42.390Z,17.42
2022-12-06T02:04:47.404Z,15.63
2022-12-06T02:07:52.948Z,15.27
2022-12-06T02:10:57.596Z,15.10
2022-12-06T02:14:05.691Z,17.75
2022-12-06T02:17:22.006Z,15.85
2022-12-06T02:20:38.895Z,18.73
2022-12-06T02:24:07.080Z,15.35
2022-12-06T02:27:20.095Z,14.40
2022-12-06T02:30:34.695Z,16.58
2022-12-06T02:34:00.594Z,18.05
2022-12-06T02:37:14.585Z,15.90
2022-12-06T02:43:37.194Z,17.42
2022-12-06T02:46:43.668Z,15.77
2022-12-06T02:49:50.160Z,16.63
2022-12-06T02:52:54.489Z,15.63
2022-12-06T02:55:59.093Z,17.92
2022-12-06T02:59:03.931Z,15.95
2022-12-06T03:02:11.281Z,17.92
2022-12-06T03:05:24.034Z,16.42
2022-12-06T03:09:02.261Z,16.50
2022-12-06T03:12:30.618Z,13.95
2022-12-06T03:15:50.278Z,16.65
2022-12-06T03:19:02.981Z,16.52
2022-12-06T03:22:13.511Z,14.23
2022-12-06T03:25:17.998Z,15.68
2022-12-06T03:28:22.840Z,14.27
2022-12-06T03:31:30.380Z,17.00
2022-12-06T03:34:44.828Z,17.88
2022-12-06T03:37:52.800Z,17.90
2022-12-06T03:40:59.734Z,15.52
2022-12-06T03:44:04.624Z,18.45
2022-12-06T03:47:16.012Z,18.85
2022-12-06T03:50:28.098Z,17.40
2022-12-06T03:53:32.798Z,17.35
2022-12-06T03:56:38.519Z,16.83
2022-12-06T03:59:42.615Z,15.98
2022-12-06T04:02:46.860Z,17.33
2022-12-06T04:05:51.048Z,19.08
2022-12-06T04:09:14.979Z,16.17
2022-12-06T04:12:38.037Z,17.13
2022-12-06T04:15:42.387Z,19.45
2022-12-06T04:18:47.594Z,15.57
2022-12-06T04:22:10.287Z,20.05
2022-12-06T04:25:14.326Z,18.58
2022-12-06T04:28:37.330Z,19.27
2022-12-06T04:32:00.142Z,17.58
2022-12-06T04:35:22.865Z,18.17
2022-12-06T04:38:42.528Z,17.80
2022-12-06T04:42:07.986Z,17.48
2022-12-06T04:45:12.726Z,17.95
2022-12-06T04:48:16.833Z,18.98
2022-12-06T04:51:21.608Z,16.35
2022-12-06T04:54:25.966Z,18.42
2022-12-06T04:57:29.760Z,18.20
2022-12-06T05:00:34.038Z,16.27
2022-12-06T05:03:43.929Z,19.27
2022-12-06T05:06:48.551Z,19.45
2022-12-06T05:09:52.667Z,19.35
2022-12-06T05:12:56.764Z,21.90
2022-12-06T05:16:03.970Z,19.15
2022-12-06T05:19:08.182Z,19.80
2022-12-06T05:22:12.518Z,19.35
2022-12-06T05:25:17.080Z,20.58
2022-12-06T05:28:21.275Z,20.58
2022-12-06T05:31:25.506Z,19.77
2022-12-06T05:34:29.355Z,20.92
2022-12-06T05:37:33.695Z,21.80
2022-12-06T05:40:40.287Z,23.42
2022-12-06T05:43:44.442Z,20.75
2022-12-06T05:46:48.550Z,18.83
2022-12-06T05:49:52.622Z,20.90
2022-12-06T05:52:57.997Z,21.85
2022-12-06T05:56:06.640Z,20.90
2022-12-06T05:59:10.952Z,19.85
2022-12-06T06:02:15.308Z,20.77
2022-12-06T06:05:19.550Z,21.90
2022-12-06T06:08:23.783Z,22.30
2022-12-06T06:11:28.056Z,20.77
2022-12-06T06:14:32.581Z,28.23
2022-12-06T06:17:37.089Z,25.35
2022-12-06T06:20:40.986Z,33.25
2022-12-06T06:23:45.086Z,26.40
2022-12-06T06:27:09.722Z,27.27
2022-12-06T06:30:14.434Z,28.05
2022-12-06T06:33:18.299Z,24.27
2022-12-06T06:36:22.700Z,31.48
2022-12-06T06:39:26.867Z,24.13
2022-12-06T06:42:30.782Z,28.20
2022-12-06T06:45:34.981Z,32.42
2022-12-06T06:48:39.762Z,23.45
2022-12-06T06:51:44.575Z,25.77
2022-12-06T06:54:48.782Z,26.23
2022-12-06T06:57:55.663Z,25.98
2022-12-06T07:01:01.520Z,24.17
2022-12-06T07:04:05.758Z,25.55
2022-12-06T07:07:13.341Z,23.20
2022-12-06T07:10:21.911Z,26.08
2022-12-06T07:13:27.787Z,25.73
2022-12-06T07:16:32.134Z,26.00
2022-12-06T07:19:35.984Z,26.08
2022-12-06T07:22:40.073Z,27.20
2022-12-06T07:25:43.796Z,22.38
2022-12-06T07:28:49.425Z,22.52
2022-12-06T07:31:53.656Z,24.88
2022-12-06T07:34:57.553Z,28.17
2022-12-06T07:38:01.430Z,30.48
2022-12-06T07:41:26.697Z,26.83
2022-12-06T07:44:49.476Z,26.17
2022-12-06T07:47:53.622Z,25.53
2022-12-06T07:50:58.073Z,27.83
2022-12-06T07:54:02.310Z,25.52
2022-12-06T07:57:06.776Z,26.38
2022-12-06T08:00:16.606Z,19.00
2022-12-06T08:03:20.788Z,18.40
2022-12-06T08:06:25.185Z,19.70
2022-12-06T08:09:29.591Z,21.80
2022-12-06T08:12:34.269Z,25.20
2022-12-06T08:15:41.515Z,22.90
2022-12-06T08:18:45.843Z,23.48
2022-12-06T08:21:50.502Z,20.00
2022-12-06T08:24:54.560Z,19.65
2022-12-06T08:27:58.623Z,17.30
2022-12-06T08:31:08.442Z,20.75
2022-12-06T08:34:14.033Z,20.27
2022-12-06T08:37:18.159Z,20.90
2022-12-06T08:40:22.547Z,21.40
2022-12-06T08:43:26.791Z,22.42
2022-12-06T08:46:32.957Z,19.73
2022-12-06T08:49:37.225Z,19.30
2022-12-06T08:52:41.410Z,19.60
2022-12-06T08:56:00.352Z,21.30
2022-12-06T08:59:07.515Z,21.33
2022-12-06T09:02:12.737Z,24.58
2022-12-06T09:05:17.029Z,26.63
2022-12-06T09:08:21.262Z,28.58
2022-12-06T09:11:26.522Z,25.88
2022-12-06T09:14:30.883Z,25.25
2022-12-06T09:17:35.815Z,26.50
2022-12-06T09:20:41.042Z,27.83
2022-12-06T09:23:45.267Z,34.42
2022-12-06T09:26:49.656Z,35.08
2022-12-06T09:29:53.677Z,30.63
2022-12-06T09:32:57.915Z,29.50
2022-12-06T09:36:09.947Z,28.13
2022-12-06T09:39:17.241Z,28.73
2022-12-06T09:42:45.519Z,23.80
2022-12-06T09:45:58.890Z,25.33
2022-12-06T09:49:09.020Z,21.42
2022-12-06T09:52:32.385Z,24.10
2022-12-06T09:56:00.560Z,26.48
2022-12-06T09:59:13.356Z,24.13
2022-12-06T10:02:46.060Z,23.85
2022-12-06T10:06:03.612Z,24.88
2022-12-06T10:09:34.009Z,21.77
2022-12-06T10:12:50.140Z,21.73
2022-12-06T10:16:15.690Z,20.63
2022-12-06T10:19:32.057Z,17.10
2022-12-06T10:22:41.893Z,17.35
2022-12-06T10:26:11.941Z,20.85
2022-12-06T10:29:30.121Z,17.63
2022-12-06T10:32:54.910Z,17.77
2022-12-06T10:36:02.988Z,14.57
2022-12-06T10:39:14.281Z,14.38
2022-12-06T10:42:44.775Z,14.77
2022-12-06T10:46:23.989Z,16.02
2022-12-06T10:49:34.148Z,14.75
2022-12-06T10:52:50.300Z,14.32
2022-12-06T10:56:00.336Z,14.25
2022-12-06T10:59:39.946Z,13.88
2022-12-06T11:02:55.098Z,17.50
2022-12-06T11:06:17.203Z,13.60
2022-12-06T11:09:33.933Z,12.60
2022-12-06T11:12:39.190Z,14.75
2022-12-06T11:15:52.832Z,14.05
2022-12-06T11:19:00.545Z,12.90
2022-12-06T11:22:04.676Z,13.98
2022-12-06T11:25:08.721Z,14.02
2022-12-06T11:28:21.721Z,14.38
2022-12-06T11:31:29.779Z,14.82
2022-12-06T11:34:57.719Z,13.27
2022-12-06T11:38:05.357Z,13.77
2022-12-06T11:41:14.145Z,11.93
2022-12-06T11:44:21.649Z,12.95
2022-12-06T11:47:25.632Z,13.05
2022-12-06T11:50:32.421Z,12.30
2022-12-06T11:53:44.233Z,12.65
2022-12-06T11:56:48.178Z,11.55
2022-12-06T12:00:08.169Z,10.73
2022-12-06T12:03:28.216Z,11.05
2022-12-06T12:06:33.333Z,13.48
2022-12-06T12:09:50.166Z,11.32
2022-12-06T12:13:30.602Z,10.65
2022-12-06T12:16:44.718Z,13.57
2022-12-06T12:20:02.199Z,12.65
2022-12-06T12:23:17.265Z,13.25
2022-12-06T12:26:22.331Z,18.08
2022-12-06T12:29:26.292Z,11.57
2022-12-06T12:32:30.452Z,11.63
2022-12-06T12:40:02.007Z,10.13
2022-12-06T12:43:17.536Z,10.35
2022-12-06T12:46:22.426Z,10.77
2022-12-06T12:49:28.294Z,9.68
2022-12-06T12:52:37.723Z,12.18
2022-12-06T12:55:42.059Z,13.02
2022-12-06T12:58:52.147Z,12.77
2022-12-06T13:02:22.595Z,14.25
2022-12-06T13:05:33.681Z,13.20
2022-12-06T13:08:39.351Z,11.23
2022-12-06T13:11:49.799Z,13.18
2022-12-06T13:15:16.604Z,12.20
2022-12-06T13:18:39.675Z,10.95
2022-12-06T13:21:45.216Z,11.00
2022-12-06T13:25:04.460Z,10.20
2022-12-06T13:28:18.867Z,10.70
2022-12-06T13:31:26.195Z,12.55
2022-12-06T13:34:38.732Z,9.05
2022-12-06T13:37:53.560Z,12.20
2022-12-06T13:41:14.505Z,13.85
2022-12-06T13:44:54.831Z,11.63
2022-12-06T13:47:58.976Z,12.52
2022-12-06T13:51:30.035Z,10.73
2022-12-06T13:54:34.276Z,10.60
2022-12-06T13:57:38.369Z,11.02
2022-12-06T14:00:42.429Z,10.45
2022-12-06T14:03:55.971Z,9.45
2022-12-06T14:10:13.791Z,10.85
2022-12-06T14:13:21.592Z,8.70
2022-12-06T14:16:28.874Z,9.82
2022-12-06T14:19:41.868Z,8.70
2022-12-06T14:25:51.382Z,12.23
2022-12-06T14:28:58.382Z,8.88
2022-12-06T14:32:03.156Z,8.73
2022-12-06T14:35:13.736Z,8.30
2022-12-06T14:38:27.498Z,8.65
2022-12-06T14:41:53.838Z,7.85
2022-12-06T14:45:02.260Z,9.27
2022-12-06T14:48:06.932Z,8.23
2022-12-06T14:51:23.242Z,8.63
2022-12-06T14:54:27.631Z,10.90
2022-12-06T14:57:38.814Z,7.07
2022-12-06T15:01:01.010Z,9.02
2022-12-06T15:04:07.872Z,8.52
2022-12-06T15:07:37.597Z,7.40
2022-12-06T15:10:41.753Z,7.45
2022-12-06T15:14:17.915Z,7.20
2022-12-06T15:17:22.378Z,8.40
2022-12-06T15:20:26.490Z,7.30
2022-12-06T15:23:51.171Z,10.23
2022-12-06T15:26:55.718Z,8.00
2022-12-06T15:29:59.840Z,7.97
2022-12-06T15:33:04.367Z,7.78
2022-12-06T15:36:15.133Z,8.05
2022-12-06T15:39:19.601Z,8.00
2022-12-06T15:42:24.035Z,10.77
2022-12-06T15:45:28.196Z,7.95
2022-12-06T15:48:36.833Z,9.30
2022-12-06T15:51:41.436Z,7.95
2022-12-06T15:54:45.886Z,7.13
2022-12-06T15:57:49.889Z,7.82
2022-12-06T16:00:55.138Z,8.02
2022-12-06T16:03:59.182Z,10.68
2022-12-06T16:07:03.296Z,8.98
2022-12-06T16:10:07.923Z,10.73
2022-12-06T16:13:24.454Z,10.75
2022-12-06T16:16:28.784Z,9.70
2022-12-06T16:19:51.547Z,8.57
2022-12-06T16:23:14.512Z,7.65
2022-12-06T16:26:21.925Z,8.50
2022-12-06T16:29:25.820Z,8.02
2022-12-06T16:32:30.008Z,9.00
2022-12-06T16:35:34.215Z,9.18
2022-12-06T16:38:38.328Z,12.75
2022-12-06T16:41:42.545Z,9.18
2022-12-06T16:44:52.948Z,8.95
2022-12-06T16:47:56.892Z,8.45
2022-12-06T16:51:00.728Z,9.15
2022-12-06T16:54:05.276Z,9.57
2022-12-06T16:57:13.946Z,8.00
2022-12-06T17:00:18.472Z,8.40
2022-12-06T17:03:22.578Z,9.07
2022-12-06T17:06:28.760Z,8.60
2022-12-06T17:09:33.046Z,9.35
2022-12-06T17:12:39.137Z,8.68
2022-12-06T17:15:43.625Z,8.70
2022-12-06T17:18:47.835Z,8.32
2022-12-06T17:21:54.697Z,9.25
2022-12-06T17:24:59.963Z,9.75
2022-12-06T17:28:04.650Z,9.57
2022-12-06T17:31:09.364Z,10.55
2022-12-06T17:34:14.689Z,10.65
2022-12-06T17:37:19.112Z,9.85
2022-12-06T17:40:26.052Z,10.55
2022-12-06T17:43:30.044Z,9.35
2022-12-06T17:46:34.140Z,10.80
2022-12-06T17:49:38.431Z,17.77
2022-12-06T17:52:42.658Z,13.60
2022-12-06T17:55:46.845Z,11.73
2022-12-06T17:58:52.453Z,10.85
2022-12-06T18:02:16.953Z,12.05
2022-12-06T18:05:21.879Z,10.73
2022-12-06T18:08:26.158Z,10.85
2022-12-06T18:11:33.695Z,11.80
2022-12-06T18:14:37.451Z,11.75
2022-12-06T18:17:41.689Z,12.95
2022-12-06T18:20:45.977Z,14.45
2022-12-06T18:24:19.792Z,14.15
2022-12-06T18:27:16.001Z,11.23
2022-12-06T18:30:20.086Z,12.38
2022-12-06T18:33:27.966Z,15.32
2022-12-06T18:36:34.780Z,11.98
2022-12-06T18:39:46.193Z,12.52
2022-12-06T18:42:51.066Z,11.60
2022-12-06T18:46:03.532Z,14.90
2022-12-06T18:49:09.893Z,13.80
2022-12-06T18:52:14.598Z,13.65
2022-12-06T18:55:18.345Z,14.93
2022-12-06T18:58:22.687Z,12.93
2022-12-06T19:01:33.342Z,14.43
2022-12-06T19:04:37.391Z,14.95
2022-12-06T19:07:42.141Z,13.95
2022-12-06T19:10:46.579Z,14.60
2022-12-06T19:13:52.010Z,14.90
2022-12-06T19:16:56.375Z,13.82
2022-12-06T19:20:00.473Z,15.98
2022-12-06T19:23:04.961Z,15.00
2022-12-06T19:26:09.521Z,12.15
2022-12-06T19:29:15.420Z,11.27
2022-12-06T19:32:19.296Z,13.57
2022-12-06T19:35:23.489Z,12.57
2022-12-06T19:38:28.312Z,11.27
2022-12-06T19:41:53.723Z,13.25
2022-12-06T19:44:58.008Z,11.55
2022-12-06T19:48:02.210Z,12.70
2022-12-06T19:51:06.854Z,10.75
2022-12-06T19:54:13.964Z,10.68
2022-12-06T19:57:17.943Z,14.30
2022-12-06T20:00:23.072Z,14.52
2022-12-06T20:03:27.394Z,11.73
2022-12-06T20:06:31.640Z,10.35
2022-12-06T20:09:35.801Z,11.15
2022-12-06T20:12:40.052Z,11.10
2022-12-06T20:15:44.201Z,11.23
2022-12-06T20:18:48.369Z,13.73
2022-12-06T20:21:52.433Z,13.02
2022-12-06T20:24:56.751Z,12.32
2022-12-06T20:28:02.376Z,15.23
2022-12-06T20:31:17.180Z,17.58
2022-12-06T20:34:21.282Z,13.00
2022-12-06T20:37:25.441Z,15.13
2022-12-06T20:40:31.526Z,13.73
2022-12-06T20:43:37.358Z,13.95
2022-12-06T20:46:41.760Z,12.27
2022-12-06T20:49:45.953Z,12.52
2022-12-06T20:52:50.225Z,11.65
2022-12-06T20:55:53.939Z,12.77
2022-12-06T20:59:00.021Z,11.60
2022-12-06T21:02:05.664Z,15.60
2022-12-06T21:05:10.320Z,13.68
2022-12-06T21:08:14.543Z,13.77
2022-12-06T21:11:23.038Z,14.30
2022-12-06T21:14:27.625Z,14.10
2022-12-06T21:17:32.733Z,13.40
2022-12-06T21:20:40.123Z,13.00
2022-12-06T21:23:44.001Z,15.93
2022-12-06T21:26:48.794Z,16.02
2022-12-06T21:29:53.111Z,16.45
2022-12-06T21:32:57.651Z,15.05
2022-12-06T21:36:03.350Z,17.08
2022-12-06T21:39:07.759Z,18.60
2022-12-06T21:42:15.362Z,18.15
2022-12-06T21:45:19.337Z,20.60
2022-12-06T21:48:23.319Z,18.85
2022-12-06T21:51:30.142Z,17.80
2022-12-06T21:54:34.380Z,18.65
2022-12-06T21:57:38.399Z,17.95
2022-12-06T22:00:42.473Z,17.88
2022-12-06T22:03:52.237Z,17.73
2022-12-06T22:06:56.150Z,17.42
2022-12-06T22:10:00.600Z,18.05
2022-12-06T22:13:04.749Z,20.23
2022-12-06T22:16:10.230Z,17.35
2022-12-06T22:19:14.152Z,17.02
2022-12-06T22:22:19.503Z,17.33
2022-12-06T22:25:23.774Z,18.27
2022-12-06T22:28:27.842Z,17.58
2022-12-06T22:31:33.585Z,20.15
2022-12-06T22:34:37.965Z,19.73
2022-12-06T22:37:42.158Z,17.73
2022-12-06T22:40:55.574Z,16.85
2022-12-06T22:44:02.328Z,20.90
2022-12-06T22:47:06.674Z,19.08
2022-12-06T22:50:10.865Z,17.15
2022-12-06T22:53:15.114Z,19.08
2022-12-06T22:56:19.293Z,19.35
2022-12-06T22:59:23.347Z,18.83
2022-12-06T23:02:27.506Z,18.98
2022-12-06T23:05:31.491Z,18.30
2022-12-06T23:08:36.321Z,17.02
2022-12-06T23:11:40.834Z,17.83
2022-12-06T23:14:44.745Z,19.65
2022-12-06T23:17:48.724Z,19.42
2022-12-06T23:21:19.000Z,21.70
2022-12-06T23:24:23.098Z,18.20
2022-12-06T23:27:26.873Z,18.83
2022-12-06T23:30:30.978Z,18.05
2022-12-06T23:33:35.283Z,17.15
2022-12-06T23:36:39.887Z,20.85
2022-12-06T23:39:43.601Z,18.15
2022-12-06T23:42:47.666Z,19.05
2022-12-06T23:45:59.205Z,19.70
2022-12-06T23:52:09.883Z,17.70
2022-12-06T23:55:14.219Z,18.45
2022-12-06T23:58:18.422Z,18.67
